sensor_id;sensor_type;location;lat;lon;timestamp;temperature;humidity
3602;DHT22;1815;50.950;6.920;2023-04-06T00:01:40;6.30;45.40
3602;DHT22;1815;50.950;6.920;2023-04-06T00:04:06;6.30;45.50
3602;DHT22;1815;50.950;6.920;2023-04-06T00:06:33;6.20;45.60
3602;DHT22;1815;50.950;6.920;2023-04-06T00:08:59;6.20;45.70
3602;DHT22;1815;50.950;6.920;2023-04-06T00:11:26;6.20;45.90
3602;DHT22;1815;50.950;6.920;2023-04-06T00:13:52;6.20;45.90
3602;DHT22;1815;50.950;6.920;2023-04-06T00:16:19;6.20;46.00
3602;DHT22;1815;50.950;6.920;2023-04-06T00:18:45;6.20;46.30
3602;DHT22;1815;50.950;6.920;2023-04-06T00:21:14;6.20;47.00
3602;DHT22;1815;50.950;6.920;2023-04-06T00:23:40;6.20;46.50
3602;DHT22;1815;50.950;6.920;2023-04-06T00:26:06;6.10;46.90
3602;DHT22;1815;50.950;6.920;2023-04-06T00:28:32;6.10;47.00
3602;DHT22;1815;50.950;6.920;2023-04-06T00:30:59;6.10;46.80
3602;DHT22;1815;50.950;6.920;2023-04-06T00:33:25;6.10;48.10
3602;DHT22;1815;50.950;6.920;2023-04-06T00:35:51;6.10;48.70
3602;DHT22;1815;50.950;6.920;2023-04-06T00:38:17;6.20;48.20
3602;DHT22;1815;50.950;6.920;2023-04-06T00:40:43;6.20;48.00
3602;DHT22;1815;50.950;6.920;2023-04-06T00:43:13;6.20;47.70
3602;DHT22;1815;50.950;6.920;2023-04-06T00:45:40;6.20;48.80
3602;DHT22;1815;50.950;6.920;2023-04-06T00:48:07;6.20;48.00
3602;DHT22;1815;50.950;6.920;2023-04-06T00:50:33;6.20;48.50
3602;DHT22;1815;50.950;6.920;2023-04-06T00:52:59;6.20;50.20
3602;DHT22;1815;50.950;6.920;2023-04-06T00:55:27;6.10;49.40
3602;DHT22;1815;50.950;6.920;2023-04-06T00:57:53;6.10;49.10
3602;DHT22;1815;50.950;6.920;2023-04-06T01:00:20;6.10;49.00
3602;DHT22;1815;50.950;6.920;2023-04-06T01:02:50;6.10;48.40
3602;DHT22;1815;50.950;6.920;2023-04-06T01:05:19;6.20;48.50
3602;DHT22;1815;50.950;6.920;2023-04-06T01:07:52;6.10;48.70
3602;DHT22;1815;50.950;6.920;2023-04-06T01:10:26;6.10;48.80
3602;DHT22;1815;50.950;6.920;2023-04-06T01:12:59;6.10;48.60
3602;DHT22;1815;50.950;6.920;2023-04-06T01:15:56;6.10;48.30
3602;DHT22;1815;50.950;6.920;2023-04-06T01:18:45;6.10;48.30
3602;DHT22;1815;50.950;6.920;2023-04-06T01:21:16;6.10;48.20
3602;DHT22;1815;50.950;6.920;2023-04-06T01:23:56;6.10;48.60
3602;DHT22;1815;50.950;6.920;2023-04-06T01:26:29;6.00;48.60
3602;DHT22;1815;50.950;6.920;2023-04-06T01:28:57;6.00;48.60
3602;DHT22;1815;50.950;6.920;2023-04-06T01:31:28;6.00;48.80
3602;DHT22;1815;50.950;6.920;2023-04-06T01:33:54;5.90;48.60
3602;DHT22;1815;50.950;6.920;2023-04-06T01:36:23;5.90;48.50
3602;DHT22;1815;50.950;6.920;2023-04-06T01:38:58;5.90;48.80
3602;DHT22;1815;50.950;6.920;2023-04-06T01:41:31;5.90;49.00
3602;DHT22;1815;50.950;6.920;2023-04-06T01:43:57;5.90;49.70
3602;DHT22;1815;50.950;6.920;2023-04-06T01:46:27;5.80;48.70
3602;DHT22;1815;50.950;6.920;2023-04-06T01:48:52;5.80;48.70
3602;DHT22;1815;50.950;6.920;2023-04-06T01:51:33;5.80;49.60
3602;DHT22;1815;50.950;6.920;2023-04-06T01:54:01;5.80;49.40
3602;DHT22;1815;50.950;6.920;2023-04-06T01:56:47;5.80;50.30
3602;DHT22;1815;50.950;6.920;2023-04-06T01:59:26;5.80;49.90
3602;DHT22;1815;50.950;6.920;2023-04-06T02:01:52;5.80;50.00
3602;DHT22;1815;50.950;6.920;2023-04-06T02:04:18;5.80;49.90
3602;DHT22;1815;50.950;6.920;2023-04-06T02:06:47;5.80;50.50
3602;DHT22;1815;50.950;6.920;2023-04-06T02:09:15;5.80;49.60
3602;DHT22;1815;50.950;6.920;2023-04-06T02:11:41;5.80;49.90
3602;DHT22;1815;50.950;6.920;2023-04-06T02:14:07;5.80;49.70
3602;DHT22;1815;50.950;6.920;2023-04-06T02:16:38;5.80;49.90
3602;DHT22;1815;50.950;6.920;2023-04-06T02:19:04;5.80;50.10
3602;DHT22;1815;50.950;6.920;2023-04-06T02:21:29;5.70;49.70
3602;DHT22;1815;50.950;6.920;2023-04-06T02:23:55;5.70;50.20
3602;DHT22;1815;50.950;6.920;2023-04-06T02:26:21;5.70;50.00
3602;DHT22;1815;50.950;6.920;2023-04-06T02:28:47;5.70;50.20
3602;DHT22;1815;50.950;6.920;2023-04-06T02:31:12;5.60;49.90
3602;DHT22;1815;50.950;6.920;2023-04-06T02:33:41;5.60;50.00
3602;DHT22;1815;50.950;6.920;2023-04-06T02:36:07;5.60;51.00
3602;DHT22;1815;50.950;6.920;2023-04-06T02:38:33;5.60;51.70
3602;DHT22;1815;50.950;6.920;2023-04-06T02:41:00;5.50;51.70
3602;DHT22;1815;50.950;6.920;2023-04-06T02:43:27;5.50;52.10
3602;DHT22;1815;50.950;6.920;2023-04-06T02:46:13;5.50;51.30
3602;DHT22;1815;50.950;6.920;2023-04-06T02:48:39;5.50;50.90
3602;DHT22;1815;50.950;6.920;2023-04-06T02:51:06;5.50;50.90
3602;DHT22;1815;50.950;6.920;2023-04-06T02:53:32;5.40;51.00
3602;DHT22;1815;50.950;6.920;2023-04-06T02:55:58;5.40;51.00
3602;DHT22;1815;50.950;6.920;2023-04-06T02:58:30;5.40;51.20
3602;DHT22;1815;50.950;6.920;2023-04-06T03:00:57;5.40;51.70
3602;DHT22;1815;50.950;6.920;2023-04-06T03:03:23;5.40;51.30
3602;DHT22;1815;50.950;6.920;2023-04-06T03:05:49;5.40;51.30
3602;DHT22;1815;50.950;6.920;2023-04-06T03:08:19;5.40;51.10
3602;DHT22;1815;50.950;6.920;2023-04-06T03:10:45;5.30;51.60
3602;DHT22;1815;50.950;6.920;2023-04-06T03:13:11;5.30;52.00
3602;DHT22;1815;50.950;6.920;2023-04-06T03:15:49;5.30;51.70
3602;DHT22;1815;50.950;6.920;2023-04-06T03:18:22;5.30;51.60
3602;DHT22;1815;50.950;6.920;2023-04-06T03:20:49;5.30;51.80
3602;DHT22;1815;50.950;6.920;2023-04-06T03:23:17;5.30;51.90
3602;DHT22;1815;50.950;6.920;2023-04-06T03:25:44;5.30;52.40
3602;DHT22;1815;50.950;6.920;2023-04-06T03:28:15;5.30;51.90
3602;DHT22;1815;50.950;6.920;2023-04-06T03:31:01;5.30;51.70
3602;DHT22;1815;50.950;6.920;2023-04-06T03:33:45;5.30;52.20
3602;DHT22;1815;50.950;6.920;2023-04-06T03:36:20;5.20;52.20
3602;DHT22;1815;50.950;6.920;2023-04-06T03:38:47;5.20;52.10
3602;DHT22;1815;50.950;6.920;2023-04-06T03:41:14;5.20;52.20
3602;DHT22;1815;50.950;6.920;2023-04-06T03:43:44;5.20;52.20
3602;DHT22;1815;50.950;6.920;2023-04-06T03:46:10;5.20;52.60
3602;DHT22;1815;50.950;6.920;2023-04-06T03:48:36;5.20;53.10
3602;DHT22;1815;50.950;6.920;2023-04-06T03:51:05;5.20;52.90
3602;DHT22;1815;50.950;6.920;2023-04-06T03:53:30;5.20;52.80
3602;DHT22;1815;50.950;6.920;2023-04-06T03:55:56;5.10;53.80
3602;DHT22;1815;50.950;6.920;2023-04-06T03:58:22;5.10;54.30
3602;DHT22;1815;50.950;6.920;2023-04-06T04:00:48;5.10;54.30
3602;DHT22;1815;50.950;6.920;2023-04-06T04:03:13;5.10;55.30
3602;DHT22;1815;50.950;6.920;2023-04-06T04:05:41;5.10;54.50
3602;DHT22;1815;50.950;6.920;2023-04-06T04:08:08;5.10;53.90
3602;DHT22;1815;50.950;6.920;2023-04-06T04:10:34;5.10;53.70
3602;DHT22;1815;50.950;6.920;2023-04-06T04:12:59;5.10;53.40
3602;DHT22;1815;50.950;6.920;2023-04-06T04:15:26;5.10;53.80
3602;DHT22;1815;50.950;6.920;2023-04-06T04:17:52;5.10;54.70
3602;DHT22;1815;50.950;6.920;2023-04-06T04:20:18;5.10;54.70
3602;DHT22;1815;50.950;6.920;2023-04-06T04:22:44;5.10;55.10
3602;DHT22;1815;50.950;6.920;2023-04-06T04:25:10;5.10;55.30
3602;DHT22;1815;50.950;6.920;2023-04-06T04:27:42;5.10;55.00
3602;DHT22;1815;50.950;6.920;2023-04-06T04:30:08;5.10;55.20
3602;DHT22;1815;50.950;6.920;2023-04-06T04:32:34;5.10;55.70
3602;DHT22;1815;50.950;6.920;2023-04-06T04:35:03;5.10;55.70
3602;DHT22;1815;50.950;6.920;2023-04-06T04:37:35;5.10;56.90
3602;DHT22;1815;50.950;6.920;2023-04-06T04:40:02;5.10;56.00
3602;DHT22;1815;50.950;6.920;2023-04-06T04:42:32;5.00;56.10
3602;DHT22;1815;50.950;6.920;2023-04-06T04:44:59;5.00;57.40
3602;DHT22;1815;50.950;6.920;2023-04-06T04:47:32;5.00;56.20
3602;DHT22;1815;50.950;6.920;2023-04-06T04:49:59;5.00;58.00
3602;DHT22;1815;50.950;6.920;2023-04-06T04:52:25;5.00;59.20
3602;DHT22;1815;50.950;6.920;2023-04-06T04:55:11;5.00;58.40
3602;DHT22;1815;50.950;6.920;2023-04-06T04:57:36;4.90;59.50
3602;DHT22;1815;50.950;6.920;2023-04-06T05:00:04;5.00;59.70
3602;DHT22;1815;50.950;6.920;2023-04-06T05:02:32;5.00;58.70
3602;DHT22;1815;50.950;6.920;2023-04-06T05:05:11;5.00;58.30
3602;DHT22;1815;50.950;6.920;2023-04-06T05:07:38;5.00;58.80
3602;DHT22;1815;50.950;6.920;2023-04-06T05:10:07;5.00;58.60
3602;DHT22;1815;50.950;6.920;2023-04-06T05:12:39;5.00;58.30
3602;DHT22;1815;50.950;6.920;2023-04-06T05:15:08;5.00;59.40
3602;DHT22;1815;50.950;6.920;2023-04-06T05:17:34;5.00;58.50
3602;DHT22;1815;50.950;6.920;2023-04-06T05:20:00;5.10;58.90
3602;DHT22;1815;50.950;6.920;2023-04-06T05:22:30;5.10;58.20
3602;DHT22;1815;50.950;6.920;2023-04-06T05:25:14;5.10;57.70
3602;DHT22;1815;50.950;6.920;2023-04-06T05:27:41;5.20;58.10
3602;DHT22;1815;50.950;6.920;2023-04-06T05:30:18;5.10;58.10
3602;DHT22;1815;50.950;6.920;2023-04-06T05:32:45;5.20;59.30
3602;DHT22;1815;50.950;6.920;2023-04-06T05:35:12;5.20;58.40
3602;DHT22;1815;50.950;6.920;2023-04-06T05:37:39;5.20;58.20
3602;DHT22;1815;50.950;6.920;2023-04-06T05:40:06;5.30;59.60
3602;DHT22;1815;50.950;6.920;2023-04-06T05:42:43;5.20;60.50
3602;DHT22;1815;50.950;6.920;2023-04-06T05:45:10;5.30;59.50
3602;DHT22;1815;50.950;6.920;2023-04-06T05:47:37;5.30;58.90
3602;DHT22;1815;50.950;6.920;2023-04-06T05:50:16;5.40;58.70
3602;DHT22;1815;50.950;6.920;2023-04-06T05:52:42;5.40;60.00
3602;DHT22;1815;50.950;6.920;2023-04-06T05:55:10;5.50;59.30
3602;DHT22;1815;50.950;6.920;2023-04-06T05:57:38;5.50;59.50
3602;DHT22;1815;50.950;6.920;2023-04-06T06:00:05;5.50;59.60
3602;DHT22;1815;50.950;6.920;2023-04-06T06:02:50;5.50;59.50
3602;DHT22;1815;50.950;6.920;2023-04-06T06:05:21;5.60;60.10
3602;DHT22;1815;50.950;6.920;2023-04-06T06:07:47;5.70;59.80
3602;DHT22;1815;50.950;6.920;2023-04-06T06:10:13;5.70;60.00
3602;DHT22;1815;50.950;6.920;2023-04-06T06:12:39;5.80;60.00
3602;DHT22;1815;50.950;6.920;2023-04-06T06:15:06;5.90;59.60
3602;DHT22;1815;50.950;6.920;2023-04-06T06:17:37;6.00;59.40
3602;DHT22;1815;50.950;6.920;2023-04-06T06:20:08;6.00;60.50
3602;DHT22;1815;50.950;6.920;2023-04-06T06:22:35;6.00;60.50
3602;DHT22;1815;50.950;6.920;2023-04-06T06:25:02;6.20;59.90
3602;DHT22;1815;50.950;6.920;2023-04-06T06:27:28;6.30;60.30
3602;DHT22;1815;50.950;6.920;2023-04-06T06:29:53;6.40;60.00
3602;DHT22;1815;50.950;6.920;2023-04-06T06:32:19;6.50;60.00
3602;DHT22;1815;50.950;6.920;2023-04-06T06:34:49;6.60;59.70
3602;DHT22;1815;50.950;6.920;2023-04-06T06:37:15;6.70;59.70
3602;DHT22;1815;50.950;6.920;2023-04-06T06:39:40;6.80;59.90
3602;DHT22;1815;50.950;6.920;2023-04-06T06:42:06;6.90;60.50
3602;DHT22;1815;50.950;6.920;2023-04-06T06:44:51;7.00;60.20
3602;DHT22;1815;50.950;6.920;2023-04-06T06:47:17;7.10;61.30
3602;DHT22;1815;50.950;6.920;2023-04-06T06:49:43;7.30;60.70
3602;DHT22;1815;50.950;6.920;2023-04-06T06:52:09;7.60;61.00
3602;DHT22;1815;50.950;6.920;2023-04-06T06:54:38;8.10;62.00
3602;DHT22;1815;50.950;6.920;2023-04-06T06:57:03;8.70;63.50
3602;DHT22;1815;50.950;6.920;2023-04-06T06:59:29;9.30;63.80
3602;DHT22;1815;50.950;6.920;2023-04-06T07:01:55;10.00;63.10
3602;DHT22;1815;50.950;6.920;2023-04-06T07:04:21;10.70;61.50
3602;DHT22;1815;50.950;6.920;2023-04-06T07:06:47;11.40;61.90
3602;DHT22;1815;50.950;6.920;2023-04-06T07:09:12;12.30;62.30
3602;DHT22;1815;50.950;6.920;2023-04-06T07:11:39;13.00;61.50
3602;DHT22;1815;50.950;6.920;2023-04-06T07:14:05;13.90;60.50
3602;DHT22;1815;50.950;6.920;2023-04-06T07:16:30;14.70;58.20
3602;DHT22;1815;50.950;6.920;2023-04-06T07:18:56;15.20;56.20
3602;DHT22;1815;50.950;6.920;2023-04-06T07:21:22;15.90;56.50
3602;DHT22;1815;50.950;6.920;2023-04-06T07:23:48;16.50;55.80
3602;DHT22;1815;50.950;6.920;2023-04-06T07:26:14;17.10;55.90
3602;DHT22;1815;50.950;6.920;2023-04-06T07:28:40;17.70;55.30
3602;DHT22;1815;50.950;6.920;2023-04-06T07:31:07;18.30;54.80
3602;DHT22;1815;50.950;6.920;2023-04-06T07:33:33;19.10;54.50
3602;DHT22;1815;50.950;6.920;2023-04-06T07:35:59;19.80;54.90
3602;DHT22;1815;50.950;6.920;2023-04-06T07:38:25;20.00;53.30
3602;DHT22;1815;50.950;6.920;2023-04-06T07:40:51;20.00;50.10
3602;DHT22;1815;50.950;6.920;2023-04-06T07:43:18;19.80;49.70
3602;DHT22;1815;50.950;6.920;2023-04-06T07:45:43;19.70;48.80
3602;DHT22;1815;50.950;6.920;2023-04-06T07:48:10;19.40;47.80
3602;DHT22;1815;50.950;6.920;2023-04-06T07:50:36;19.00;46.90
3602;DHT22;1815;50.950;6.920;2023-04-06T07:53:03;18.70;47.20
3602;DHT22;1815;50.950;6.920;2023-04-06T07:55:30;18.40;47.40
3602;DHT22;1815;50.950;6.920;2023-04-06T07:57:55;18.30;47.20
3602;DHT22;1815;50.950;6.920;2023-04-06T08:00:21;18.20;47.70
3602;DHT22;1815;50.950;6.920;2023-04-06T08:02:47;18.10;47.60
3602;DHT22;1815;50.950;6.920;2023-04-06T08:05:13;17.90;46.90
3602;DHT22;1815;50.950;6.920;2023-04-06T08:07:39;17.60;44.80
3602;DHT22;1815;50.950;6.920;2023-04-06T08:10:05;17.40;46.00
3602;DHT22;1815;50.950;6.920;2023-04-06T08:12:32;17.70;47.30
3602;DHT22;1815;50.950;6.920;2023-04-06T08:14:59;17.90;47.00
3602;DHT22;1815;50.950;6.920;2023-04-06T08:17:25;18.20;47.70
3602;DHT22;1815;50.950;6.920;2023-04-06T08:19:52;18.40;47.70
3602;DHT22;1815;50.950;6.920;2023-04-06T08:22:18;18.60;47.40
3602;DHT22;1815;50.950;6.920;2023-04-06T08:24:44;18.70;47.00
3602;DHT22;1815;50.950;6.920;2023-04-06T08:27:09;18.90;46.70
3602;DHT22;1815;50.950;6.920;2023-04-06T08:29:35;19.20;47.50
3602;DHT22;1815;50.950;6.920;2023-04-06T08:32:01;19.40;45.00
3602;DHT22;1815;50.950;6.920;2023-04-06T08:34:32;19.30;45.10
3602;DHT22;1815;50.950;6.920;2023-04-06T08:36:58;19.10;44.50
3602;DHT22;1815;50.950;6.920;2023-04-06T08:39:24;18.90;44.70
3602;DHT22;1815;50.950;6.920;2023-04-06T08:41:52;18.90;45.30
3602;DHT22;1815;50.950;6.920;2023-04-06T08:44:18;18.80;45.50
3602;DHT22;1815;50.950;6.920;2023-04-06T08:46:44;19.00;45.80
3602;DHT22;1815;50.950;6.920;2023-04-06T08:49:10;19.20;46.40
3602;DHT22;1815;50.950;6.920;2023-04-06T08:51:39;19.60;46.50
3602;DHT22;1815;50.950;6.920;2023-04-06T08:54:05;19.90;46.70
3602;DHT22;1815;50.950;6.920;2023-04-06T08:56:31;20.10;45.50
3602;DHT22;1815;50.950;6.920;2023-04-06T08:58:57;19.90;43.70
3602;DHT22;1815;50.950;6.920;2023-04-06T09:01:26;19.80;43.80
3602;DHT22;1815;50.950;6.920;2023-04-06T09:03:59;19.40;41.90
3602;DHT22;1815;50.950;6.920;2023-04-06T09:06:30;19.50;43.40
3602;DHT22;1815;50.950;6.920;2023-04-06T09:08:57;19.60;43.40
3602;DHT22;1815;50.950;6.920;2023-04-06T09:11:23;19.60;44.00
3602;DHT22;1815;50.950;6.920;2023-04-06T09:13:54;19.90;44.40
3602;DHT22;1815;50.950;6.920;2023-04-06T09:16:20;20.20;44.30
3602;DHT22;1815;50.950;6.920;2023-04-06T09:18:47;20.40;44.60
3602;DHT22;1815;50.950;6.920;2023-04-06T09:21:16;20.50;44.00
3602;DHT22;1815;50.950;6.920;2023-04-06T09:23:42;20.80;44.00
3602;DHT22;1815;50.950;6.920;2023-04-06T09:26:11;20.50;42.70
3602;DHT22;1815;50.950;6.920;2023-04-06T09:28:54;20.40;43.30
3602;DHT22;1815;50.950;6.920;2023-04-06T09:31:25;20.10;42.80
3602;DHT22;1815;50.950;6.920;2023-04-06T09:33:53;20.00;43.00
3602;DHT22;1815;50.950;6.920;2023-04-06T09:36:28;20.00;43.30
3602;DHT22;1815;50.950;6.920;2023-04-06T09:38:59;19.80;42.90
3602;DHT22;1815;50.950;6.920;2023-04-06T09:41:26;19.80;43.10
3602;DHT22;1815;50.950;6.920;2023-04-06T09:44:05;19.70;43.40
3602;DHT22;1815;50.950;6.920;2023-04-06T09:46:32;19.80;42.60
3602;DHT22;1815;50.950;6.920;2023-04-06T09:49:01;19.90;43.80
3602;DHT22;1815;50.950;6.920;2023-04-06T09:51:31;20.00;43.70
3602;DHT22;1815;50.950;6.920;2023-04-06T09:54:01;20.10;43.80
3602;DHT22;1815;50.950;6.920;2023-04-06T10:00:16;20.10;42.90
3602;DHT22;1815;50.950;6.920;2023-04-06T10:02:50;19.80;42.60
3602;DHT22;1815;50.950;6.920;2023-04-06T10:08:09;20.30;43.80
3602;DHT22;1815;50.950;6.920;2023-04-06T10:10:36;20.80;44.90
3602;DHT22;1815;50.950;6.920;2023-04-06T10:13:03;21.30;45.30
3602;DHT22;1815;50.950;6.920;2023-04-06T10:15:29;21.60;44.90
3602;DHT22;1815;50.950;6.920;2023-04-06T10:17:56;21.80;42.60
3602;DHT22;1815;50.950;6.920;2023-04-06T10:25:58;22.10;43.40
3602;DHT22;1815;50.950;6.920;2023-04-06T10:28:25;22.40;44.00
3602;DHT22;1815;50.950;6.920;2023-04-06T10:30:59;22.70;43.90
3602;DHT22;1815;50.950;6.920;2023-04-06T10:33:26;22.90;43.90
3602;DHT22;1815;50.950;6.920;2023-04-06T10:35:52;22.80;42.90
3602;DHT22;1815;50.950;6.920;2023-04-06T10:38:19;22.50;42.50
3602;DHT22;1815;50.950;6.920;2023-04-06T10:40:47;22.30;42.40
3602;DHT22;1815;50.950;6.920;2023-04-06T10:43:19;22.30;42.60
3602;DHT22;1815;50.950;6.920;2023-04-06T10:45:59;22.20;42.40
3602;DHT22;1815;50.950;6.920;2023-04-06T10:48:25;22.10;42.10
3602;DHT22;1815;50.950;6.920;2023-04-06T10:51:01;21.90;42.10
3602;DHT22;1815;50.950;6.920;2023-04-06T10:53:27;21.80;42.10
3602;DHT22;1815;50.950;6.920;2023-04-06T10:55:56;21.80;42.40
3602;DHT22;1815;50.950;6.920;2023-04-06T10:58:25;21.70;41.60
3602;DHT22;1815;50.950;6.920;2023-04-06T11:00:51;21.40;41.30
3602;DHT22;1815;50.950;6.920;2023-04-06T11:03:18;21.20;40.70
3602;DHT22;1815;50.950;6.920;2023-04-06T11:05:47;20.70;40.30
3602;DHT22;1815;50.950;6.920;2023-04-06T11:08:27;20.30;40.20
3602;DHT22;1815;50.950;6.920;2023-04-06T11:11:05;19.90;40.50
3602;DHT22;1815;50.950;6.920;2023-04-06T11:14:03;19.80;40.70
3602;DHT22;1815;50.950;6.920;2023-04-06T11:16:31;19.60;41.20
3602;DHT22;1815;50.950;6.920;2023-04-06T11:21:38;19.50;41.20
3602;DHT22;1815;50.950;6.920;2023-04-06T11:26:30;19.60;42.00
3602;DHT22;1815;50.950;6.920;2023-04-06T11:28:56;19.70;42.10
3602;DHT22;1815;50.950;6.920;2023-04-06T11:31:25;19.80;42.10
3602;DHT22;1815;50.950;6.920;2023-04-06T11:33:56;19.90;42.10
3602;DHT22;1815;50.950;6.920;2023-04-06T11:36:22;20.00;42.20
3602;DHT22;1815;50.950;6.920;2023-04-06T11:38:49;20.20;42.30
3602;DHT22;1815;50.950;6.920;2023-04-06T11:41:15;20.30;42.30
3602;DHT22;1815;50.950;6.920;2023-04-06T11:43:47;20.40;42.20
3602;DHT22;1815;50.950;6.920;2023-04-06T11:46:17;20.50;41.90
3602;DHT22;1815;50.950;6.920;2023-04-06T11:48:45;20.50;42.60
3602;DHT22;1815;50.950;6.920;2023-04-06T11:51:11;20.60;42.00
3602;DHT22;1815;50.950;6.920;2023-04-06T11:53:44;20.60;42.00
3602;DHT22;1815;50.950;6.920;2023-04-06T11:56:11;20.70;41.80
3602;DHT22;1815;50.950;6.920;2023-04-06T11:58:47;20.70;41.90
3602;DHT22;1815;50.950;6.920;2023-04-06T12:01:13;20.70;41.90
3602;DHT22;1815;50.950;6.920;2023-04-06T12:03:39;20.70;41.90
3602;DHT22;1815;50.950;6.920;2023-04-06T12:06:05;20.70;41.80
3602;DHT22;1815;50.950;6.920;2023-04-06T12:08:30;20.70;41.80
3602;DHT22;1815;50.950;6.920;2023-04-06T12:10:56;20.70;41.90
3602;DHT22;1815;50.950;6.920;2023-04-06T12:13:22;20.80;42.00
3602;DHT22;1815;50.950;6.920;2023-04-06T12:15:48;20.90;42.10
3602;DHT22;1815;50.950;6.920;2023-04-06T12:18:13;20.90;41.90
3602;DHT22;1815;50.950;6.920;2023-04-06T12:20:39;21.00;41.90
3602;DHT22;1815;50.950;6.920;2023-04-06T12:23:05;21.10;41.90
3602;DHT22;1815;50.950;6.920;2023-04-06T12:25:31;21.10;41.80
3602;DHT22;1815;50.950;6.920;2023-04-06T12:27:57;21.10;41.40
3602;DHT22;1815;50.950;6.920;2023-04-06T12:30:23;21.10;41.20
3602;DHT22;1815;50.950;6.920;2023-04-06T12:32:50;21.00;40.90
3602;DHT22;1815;50.950;6.920;2023-04-06T12:35:16;20.90;41.00
3602;DHT22;1815;50.950;6.920;2023-04-06T12:37:42;20.80;40.80
3602;DHT22;1815;50.950;6.920;2023-04-06T12:40:08;20.60;41.00
3602;DHT22;1815;50.950;6.920;2023-04-06T12:42:36;20.50;41.10
3602;DHT22;1815;50.950;6.920;2023-04-06T12:45:02;20.50;41.10
3602;DHT22;1815;50.950;6.920;2023-04-06T12:47:28;20.40;41.00
3602;DHT22;1815;50.950;6.920;2023-04-06T12:49:54;20.20;40.90
3602;DHT22;1815;50.950;6.920;2023-04-06T12:52:20;20.10;41.00
3602;DHT22;1815;50.950;6.920;2023-04-06T12:54:47;20.00;41.30
3602;DHT22;1815;50.950;6.920;2023-04-06T12:57:13;20.00;41.50
3602;DHT22;1815;50.950;6.920;2023-04-06T12:59:38;19.90;41.50
3602;DHT22;1815;50.950;6.920;2023-04-06T13:02:09;19.90;42.10
3602;DHT22;1815;50.950;6.920;2023-04-06T13:04:36;19.90;41.50
3602;DHT22;1815;50.950;6.920;2023-04-06T13:07:01;19.80;41.40
3602;DHT22;1815;50.950;6.920;2023-04-06T13:09:27;19.70;41.40
3602;DHT22;1815;50.950;6.920;2023-04-06T13:11:53;19.70;41.60
3602;DHT22;1815;50.950;6.920;2023-04-06T13:14:19;19.60;41.70
3602;DHT22;1815;50.950;6.920;2023-04-06T13:16:45;19.60;41.70
3602;DHT22;1815;50.950;6.920;2023-04-06T13:19:12;19.60;41.70
3602;DHT22;1815;50.950;6.920;2023-04-06T13:21:39;19.50;41.80
3602;DHT22;1815;50.950;6.920;2023-04-06T13:24:05;19.30;41.80
3602;DHT22;1815;50.950;6.920;2023-04-06T13:26:31;19.20;42.00
3602;DHT22;1815;50.950;6.920;2023-04-06T13:28:58;19.10;42.10
3602;DHT22;1815;50.950;6.920;2023-04-06T13:31:25;18.90;42.10
3602;DHT22;1815;50.950;6.920;2023-04-06T13:33:51;18.80;42.20
3602;DHT22;1815;50.950;6.920;2023-04-06T13:36:16;18.70;42.30
3602;DHT22;1815;50.950;6.920;2023-04-06T13:38:42;18.60;42.30
3602;DHT22;1815;50.950;6.920;2023-04-06T13:41:08;18.40;42.20
3602;DHT22;1815;50.950;6.920;2023-04-06T13:43:33;18.20;42.20
3602;DHT22;1815;50.950;6.920;2023-04-06T13:45:59;18.10;42.30
3602;DHT22;1815;50.950;6.920;2023-04-06T13:48:26;17.90;42.40
3602;DHT22;1815;50.950;6.920;2023-04-06T13:50:52;17.70;42.50
3602;DHT22;1815;50.950;6.920;2023-04-06T13:53:18;17.60;42.60
3602;DHT22;1815;50.950;6.920;2023-04-06T13:55:51;17.40;42.60
3602;DHT22;1815;50.950;6.920;2023-04-06T13:58:17;17.20;42.80
3602;DHT22;1815;50.950;6.920;2023-04-06T14:00:42;17.00;43.50
3602;DHT22;1815;50.950;6.920;2023-04-06T14:03:08;16.80;42.90
3602;DHT22;1815;50.950;6.920;2023-04-06T14:05:34;16.60;43.50
3602;DHT22;1815;50.950;6.920;2023-04-06T14:08:00;16.50;43.50
3602;DHT22;1815;50.950;6.920;2023-04-06T14:10:26;16.30;43.60
3602;DHT22;1815;50.950;6.920;2023-04-06T14:12:53;16.20;43.50
3602;DHT22;1815;50.950;6.920;2023-04-06T14:15:18;16.10;44.30
3602;DHT22;1815;50.950;6.920;2023-04-06T14:17:44;16.00;44.70
3602;DHT22;1815;50.950;6.920;2023-04-06T14:20:10;15.90;44.90
3602;DHT22;1815;50.950;6.920;2023-04-06T14:22:43;15.90;45.30
3602;DHT22;1815;50.950;6.920;2023-04-06T14:25:09;15.90;45.50
3602;DHT22;1815;50.950;6.920;2023-04-06T14:27:36;15.90;45.80
3602;DHT22;1815;50.950;6.920;2023-04-06T14:30:02;15.90;46.10
3602;DHT22;1815;50.950;6.920;2023-04-06T14:32:28;15.90;46.20
3602;DHT22;1815;50.950;6.920;2023-04-06T14:34:54;15.90;46.30
3602;DHT22;1815;50.950;6.920;2023-04-06T14:37:19;15.90;46.50
3602;DHT22;1815;50.950;6.920;2023-04-06T14:39:46;15.90;46.70
3602;DHT22;1815;50.950;6.920;2023-04-06T14:42:12;15.90;46.90
3602;DHT22;1815;50.950;6.920;2023-04-06T14:44:37;15.80;47.30
3602;DHT22;1815;50.950;6.920;2023-04-06T14:47:08;15.60;47.70
3602;DHT22;1815;50.950;6.920;2023-04-06T14:49:34;15.50;48.00
3602;DHT22;1815;50.950;6.920;2023-04-06T14:52:00;15.40;48.60
3602;DHT22;1815;50.950;6.920;2023-04-06T14:54:26;15.30;48.80
3602;DHT22;1815;50.950;6.920;2023-04-06T14:56:52;15.20;48.90
3602;DHT22;1815;50.950;6.920;2023-04-06T14:59:18;15.10;50.00
3602;DHT22;1815;50.950;6.920;2023-04-06T15:01:43;15.00;49.20
3602;DHT22;1815;50.950;6.920;2023-04-06T15:04:09;14.90;49.30
3602;DHT22;1815;50.950;6.920;2023-04-06T15:06:35;14.80;49.60
3602;DHT22;1815;50.950;6.920;2023-04-06T15:09:01;14.60;50.00
3602;DHT22;1815;50.950;6.920;2023-04-06T15:11:27;14.30;50.90
3602;DHT22;1815;50.950;6.920;2023-04-06T15:13:53;14.10;51.10
3602;DHT22;1815;50.950;6.920;2023-04-06T15:16:19;13.90;51.70
3602;DHT22;1815;50.950;6.920;2023-04-06T15:18:45;13.70;51.40
3602;DHT22;1815;50.950;6.920;2023-04-06T15:21:10;13.60;52.10
3602;DHT22;1815;50.950;6.920;2023-04-06T15:23:36;13.40;53.50
3602;DHT22;1815;50.950;6.920;2023-04-06T15:26:02;13.20;53.90
3602;DHT22;1815;50.950;6.920;2023-04-06T15:28:27;13.00;53.70
3602;DHT22;1815;50.950;6.920;2023-04-06T15:30:54;12.90;54.40
3602;DHT22;1815;50.950;6.920;2023-04-06T15:33:20;12.80;55.50
3602;DHT22;1815;50.950;6.920;2023-04-06T15:35:47;12.70;56.70
3602;DHT22;1815;50.950;6.920;2023-04-06T15:38:13;12.50;57.70
3602;DHT22;1815;50.950;6.920;2023-04-06T15:40:47;12.40;58.10
3602;DHT22;1815;50.950;6.920;2023-04-06T15:43:13;12.30;60.10
3602;DHT22;1815;50.950;6.920;2023-04-06T15:45:39;12.10;62.40
3602;DHT22;1815;50.950;6.920;2023-04-06T15:48:06;12.00;66.50
3602;DHT22;1815;50.950;6.920;2023-04-06T15:50:32;11.80;69.50
3602;DHT22;1815;50.950;6.920;2023-04-06T15:52:58;11.70;67.50
3602;DHT22;1815;50.950;6.920;2023-04-06T15:55:25;11.50;69.50
3602;DHT22;1815;50.950;6.920;2023-04-06T15:57:50;11.40;69.60
3602;DHT22;1815;50.950;6.920;2023-04-06T16:00:16;11.30;72.00
3602;DHT22;1815;50.950;6.920;2023-04-06T16:02:43;11.20;72.00
3602;DHT22;1815;50.950;6.920;2023-04-06T16:05:09;11.10;73.70
3602;DHT22;1815;50.950;6.920;2023-04-06T16:07:34;10.90;74.00
3602;DHT22;1815;50.950;6.920;2023-04-06T16:10:00;10.90;77.60
3602;DHT22;1815;50.950;6.920;2023-04-06T16:12:26;10.80;78.40
3602;DHT22;1815;50.950;6.920;2023-04-06T16:14:52;10.70;82.10
3602;DHT22;1815;50.950;6.920;2023-04-06T16:17:18;10.60;82.50
3602;DHT22;1815;50.950;6.920;2023-04-06T16:19:44;10.60;83.00
3602;DHT22;1815;50.950;6.920;2023-04-06T16:22:09;10.60;84.50
3602;DHT22;1815;50.950;6.920;2023-04-06T16:24:36;10.50;85.30
3602;DHT22;1815;50.950;6.920;2023-04-06T16:27:01;10.50;89.00
3602;DHT22;1815;50.950;6.920;2023-04-06T16:29:28;10.40;89.30
3602;DHT22;1815;50.950;6.920;2023-04-06T16:31:56;10.40;93.50